createdAt,value
2023-04-03T00:01:40.281Z,4.13
2023-04-03T00:04:09.340Z,6.63
2023-04-03T00:06:38.296Z,7.38
2023-04-03T00:09:09.284Z,6.28
2023-04-03T00:11:39.188Z,5.08
2023-04-03T00:14:08.192Z,4.21
2023-04-03T00:16:37.189Z,3.57
2023-04-03T00:19:06.876Z,3.08
2023-04-03T00:21:35.825Z,2.69
2023-04-03T00:24:04.986Z,2.36
2023-04-03T00:26:33.927Z,2.07
2023-04-03T00:29:02.869Z,1.84
2023-04-03T00:31:32.245Z,1.65
2023-04-03T00:34:01.206Z,1.49
2023-04-03T00:36:30.861Z,1.35
2023-04-03T00:38:59.842Z,1.24
2023-04-03T00:41:29.104Z,1.14
2023-04-03T00:43:58.085Z,1.07
2023-04-03T00:46:27.478Z,1.10
2023-04-03T00:48:56.666Z,2.94
2023-04-03T00:51:27.214Z,5.71
2023-04-03T00:53:59.925Z,7.13
2023-04-03T00:56:31.265Z,6.30
2023-04-03T00:59:11.460Z,5.05
2023-04-03T01:01:41.093Z,4.03
2023-04-03T01:04:46.112Z,3.35
2023-04-03T01:07:31.319Z,2.72
2023-04-03T01:10:03.407Z,2.29
2023-04-03T01:12:35.529Z,1.95
2023-04-03T01:15:09.168Z,1.68
2023-04-03T01:17:45.176Z,1.44
2023-04-03T01:20:29.517Z,1.23
2023-04-03T01:23:10.704Z,1.05
2023-04-03T01:26:11.192Z,0.89
2023-04-03T01:28:40.089Z,0.74
2023-04-03T01:31:11.878Z,1.02
2023-04-03T01:33:40.892Z,3.61
2023-04-03T01:36:11.557Z,6.18
2023-04-03T01:38:40.498Z,7.15
2023-04-03T01:41:09.862Z,6.04
2023-04-03T01:43:38.899Z,4.76
2023-04-03T01:46:08.991Z,3.82
2023-04-03T01:48:38.195Z,3.13
2023-04-03T01:51:07.294Z,2.61
2023-04-03T01:53:36.247Z,2.19
2023-04-03T01:56:06.127Z,1.85
2023-04-03T01:58:35.536Z,1.56
2023-04-03T02:01:04.552Z,1.33
2023-04-03T02:03:34.002Z,1.11
2023-04-03T02:06:03.204Z,0.92
2023-04-03T02:08:32.156Z,0.76
2023-04-03T02:11:01.142Z,0.64
2023-04-03T02:13:30.078Z,0.52
2023-04-03T02:16:00.210Z,0.91
2023-04-03T02:18:29.248Z,3.48
2023-04-03T02:20:58.235Z,5.94
2023-04-03T02:23:27.141Z,7.00
2023-04-03T02:26:08.470Z,5.97
2023-04-03T02:28:37.476Z,4.59
2023-04-03T02:31:10.380Z,3.65
2023-04-03T02:33:39.853Z,2.95
2023-04-03T02:36:09.663Z,2.40
2023-04-03T02:38:38.559Z,2.00
2023-04-03T02:41:10.863Z,1.64
2023-04-03T02:43:40.220Z,1.33
2023-04-03T02:46:09.534Z,1.09
2023-04-03T02:48:38.540Z,0.88
2023-04-03T02:51:07.591Z,0.71
2023-04-03T02:53:36.476Z,0.55
2023-04-03T02:56:05.603Z,1.00
2023-04-03T02:58:34.588Z,3.64
2023-04-03T03:01:04.331Z,6.08
2023-04-03T03:03:33.324Z,6.72
2023-04-03T03:06:07.776Z,5.53
2023-04-03T03:08:36.779Z,4.28
2023-04-03T03:11:06.435Z,3.38
2023-04-03T03:13:36.119Z,2.72
2023-04-03T03:16:05.817Z,2.23
2023-04-03T03:18:35.369Z,1.80
2023-04-03T03:21:05.327Z,1.44
2023-04-03T03:23:34.326Z,1.13
2023-04-03T03:26:06.345Z,0.93
2023-04-03T03:28:37.785Z,2.34
2023-04-03T03:31:08.288Z,5.01
2023-04-03T03:33:37.265Z,6.70
2023-04-03T03:36:06.604Z,6.05
2023-04-03T03:38:35.692Z,4.68
2023-04-03T03:41:04.680Z,3.61
2023-04-03T03:43:33.616Z,2.83
2023-04-03T03:46:02.577Z,2.25
2023-04-03T03:48:31.526Z,1.78
2023-04-03T03:51:00.462Z,1.37
2023-04-03T03:53:29.388Z,1.02
2023-04-03T03:55:58.340Z,0.82
2023-04-03T03:58:27.255Z,2.44
2023-04-03T04:00:56.253Z,5.09
2023-04-03T04:03:25.416Z,6.37
2023-04-03T04:05:54.423Z,5.49
2023-04-03T04:08:24.332Z,4.19
2023-04-03T04:10:53.307Z,3.16
2023-04-03T04:13:22.724Z,2.42
2023-04-03T04:15:51.630Z,1.84
2023-04-03T04:18:22.362Z,1.37
2023-04-03T04:20:51.551Z,0.98
2023-04-03T04:23:20.857Z,0.65
2023-04-03T04:25:50.230Z,0.40
2023-04-03T04:28:19.425Z,0.20
2023-04-03T04:30:48.416Z,0.62
2023-04-03T04:33:17.467Z,3.29
2023-04-03T04:35:49.689Z,5.62
2023-04-03T04:38:18.832Z,6.65
2023-04-03T04:40:49.180Z,5.71
2023-04-03T04:43:18.328Z,4.35
2023-04-03T04:45:48.045Z,3.33
2023-04-03T04:48:17.260Z,2.54
2023-04-03T04:50:46.908Z,1.95
2023-04-03T04:53:15.872Z,1.53
2023-04-03T04:55:45.082Z,1.18
2023-04-03T04:58:13.948Z,0.90
2023-04-03T05:00:42.962Z,0.68
2023-04-03T05:03:12.289Z,0.56
2023-04-03T05:05:41.552Z,1.87
2023-04-03T05:08:10.525Z,4.66
2023-04-03T05:10:41.761Z,6.80
2023-04-03T05:13:10.690Z,6.79
2023-04-03T05:15:39.991Z,5.46
2023-04-03T05:18:09.316Z,4.32
2023-04-03T05:20:40.085Z,3.50
2023-04-03T05:23:09.211Z,2.91
2023-04-03T05:25:40.022Z,2.50
2023-04-03T05:28:09.004Z,2.17
2023-04-03T05:30:38.000Z,1.91
2023-04-03T05:33:07.111Z,1.73
2023-04-03T05:35:40.470Z,1.58
2023-04-03T05:38:09.625Z,1.47
2023-04-03T05:40:38.698Z,1.78
2023-04-03T05:43:07.660Z,4.10
2023-04-03T05:45:36.808Z,6.59
2023-04-03T05:48:05.830Z,7.12
2023-04-03T05:50:34.800Z,6.01
2023-04-03T05:53:05.076Z,4.97
2023-04-03T05:55:33.958Z,4.22
2023-04-03T05:58:02.883Z,3.71
2023-04-03T06:00:32.180Z,3.33
2023-04-03T06:03:01.283Z,3.08
2023-04-03T06:05:30.420Z,2.90
2023-04-03T06:07:59.467Z,2.76
2023-04-03T06:10:28.354Z,2.65
2023-04-03T06:12:57.275Z,2.82
2023-04-03T06:15:26.238Z,4.89
2023-04-03T06:17:55.307Z,7.29
2023-04-03T06:20:24.287Z,7.51
2023-04-03T06:22:53.270Z,6.54
2023-04-03T06:25:22.326Z,5.67
2023-04-03T06:27:51.309Z,5.06
2023-04-03T06:30:20.539Z,4.61
2023-04-03T06:32:49.783Z,4.28
2023-04-03T06:35:18.899Z,4.04
2023-04-03T06:37:47.828Z,3.87
2023-04-03T06:40:22.359Z,3.75
2023-04-03T06:42:51.451Z,3.66
2023-04-03T06:45:20.529Z,3.64
2023-04-03T06:47:49.508Z,3.66
2023-04-03T06:50:18.454Z,3.70
2023-04-03T06:52:47.529Z,3.73
2023-04-03T06:55:16.565Z,3.77
2023-04-03T06:57:45.557Z,3.81
2023-04-03T07:00:15.835Z,3.87
2023-04-03T07:02:44.799Z,3.93
2023-04-03T07:05:14.297Z,4.04
2023-04-03T07:07:43.230Z,4.15
2023-04-03T07:10:12.414Z,4.27
2023-04-03T07:12:41.597Z,4.38
2023-04-03T07:15:12.162Z,4.50
2023-04-03T07:17:41.794Z,4.62
2023-04-03T07:20:11.708Z,4.75
2023-04-03T07:22:41.189Z,4.88
2023-04-03T07:25:10.166Z,5.05
2023-04-03T07:27:39.125Z,5.17
2023-04-03T07:30:08.770Z,5.27
2023-04-03T07:32:38.084Z,5.38
2023-04-03T07:35:07.513Z,5.48
2023-04-03T07:37:36.854Z,5.62
2023-04-03T07:40:07.818Z,5.78
2023-04-03T07:42:38.209Z,5.83
2023-04-03T07:45:07.873Z,5.86
2023-04-03T07:47:37.245Z,5.80
2023-04-03T07:50:07.058Z,5.68
2023-04-03T07:52:36.254Z,5.55
2023-04-03T07:55:05.889Z,5.47
2023-04-03T07:57:35.088Z,5.59
2023-04-03T08:00:05.903Z,5.84
2023-04-03T08:02:34.886Z,5.94
2023-04-03T08:05:04.221Z,5.95
2023-04-03T08:07:33.141Z,6.14
2023-04-03T08:10:02.112Z,6.49
2023-04-03T08:12:32.975Z,6.84
2023-04-03T08:15:02.447Z,7.03
2023-04-03T08:17:31.467Z,7.17
2023-04-03T08:20:00.381Z,7.31
2023-04-03T08:22:29.325Z,7.34
2023-04-03T08:24:59.501Z,7.44
2023-04-03T08:27:29.667Z,7.47
2023-04-03T08:29:58.804Z,7.34
2023-04-03T08:32:28.097Z,7.18
2023-04-03T08:34:57.139Z,7.14
2023-04-03T08:37:26.480Z,7.12
2023-04-03T08:39:55.517Z,7.05
2023-04-03T08:42:41.597Z,6.96
2023-04-03T08:45:34.943Z,6.92
2023-04-03T08:48:42.175Z,7.09
2023-04-03T08:51:17.597Z,7.30
2023-04-03T08:54:05.352Z,7.53
2023-04-03T08:56:35.880Z,7.73
2023-04-03T08:59:22.526Z,7.76
2023-04-03T09:01:52.653Z,7.68
2023-04-03T09:04:21.658Z,7.60
2023-04-03T09:06:56.670Z,7.43
2023-04-03T09:09:37.772Z,7.16
2023-04-03T09:12:33.298Z,6.89
2023-04-03T09:15:37.766Z,6.62
2023-04-03T09:18:33.725Z,6.37
2023-04-03T09:21:08.971Z,6.24
2023-04-03T09:23:51.388Z,6.44
2023-04-03T09:26:54.972Z,6.78
2023-04-03T09:29:25.500Z,7.28
2023-04-03T09:32:01.228Z,7.75
2023-04-03T09:34:36.364Z,8.16
2023-04-03T09:37:09.878Z,8.56
2023-04-03T09:39:57.173Z,8.94
2023-04-03T09:42:27.427Z,9.27
2023-04-03T09:45:05.041Z,9.48
2023-04-03T09:47:37.481Z,9.52
2023-04-03T09:50:15.052Z,9.49
2023-04-03T09:52:50.828Z,9.33
2023-04-03T09:55:28.352Z,9.09
2023-04-03T09:58:36.147Z,8.86
2023-04-03T10:01:29.279Z,8.69
2023-04-03T10:04:18.985Z,8.78
2023-04-03T10:06:51.930Z,9.07
2023-04-03T10:09:25.138Z,9.32
2023-04-03T10:12:10.322Z,9.50
2023-04-03T10:14:42.435Z,9.67
2023-04-03T10:17:17.560Z,9.89
2023-04-03T10:19:53.878Z,10.11
2023-04-03T10:22:22.840Z,10.25
2023-04-03T10:25:06.571Z,10.42
2023-04-03T10:28:03.988Z,10.66
2023-04-03T10:30:57.311Z,10.88
2023-04-03T10:33:37.926Z,11.11
2023-04-03T10:36:38.555Z,11.39
2023-04-03T10:39:19.358Z,11.46
2023-04-03T10:41:58.017Z,11.50
2023-04-03T10:44:49.987Z,11.67
2023-04-03T10:47:28.557Z,11.82
2023-04-03T10:50:02.489Z,11.90
2023-04-03T10:52:56.334Z,11.91
2023-04-03T10:55:44.656Z,11.94
2023-04-03T10:58:22.986Z,11.95
2023-04-03T11:00:56.169Z,11.77
2023-04-03T11:03:34.093Z,11.51
2023-04-03T11:06:09.416Z,11.35
2023-04-03T11:09:25.800Z,11.21
2023-04-03T11:12:02.904Z,11.18
2023-04-03T11:14:38.220Z,11.17
2023-04-03T11:17:12.786Z,11.07
2023-04-03T11:20:02.731Z,11.14
2023-04-03T11:22:44.725Z,11.26
2023-04-03T11:25:13.609Z,11.39
2023-04-03T11:27:59.309Z,11.44
2023-04-03T11:30:43.713Z,11.34
2023-04-03T11:33:12.677Z,11.01
2023-04-03T11:35:48.526Z,10.61
2023-04-03T11:38:31.622Z,10.33
2023-04-03T11:41:01.226Z,10.12
2023-04-03T11:43:32.977Z,9.87
2023-04-03T11:46:03.588Z,9.62
2023-04-03T11:48:32.718Z,9.37
2023-04-03T11:51:13.928Z,9.16
2023-04-03T11:53:43.752Z,9.20
2023-04-03T11:56:24.881Z,9.46
2023-04-03T11:59:05.953Z,9.54
2023-04-03T12:01:57.655Z,9.51
2023-04-03T12:04:28.780Z,9.53
2023-04-03T12:07:17.911Z,9.55
2023-04-03T12:09:46.770Z,9.52
2023-04-03T12:12:33.648Z,9.49
2023-04-03T12:15:27.346Z,9.56
2023-04-03T12:17:56.667Z,9.83
2023-04-03T12:20:56.122Z,10.15
2023-04-03T12:23:34.314Z,10.50
2023-04-03T12:26:16.572Z,10.83
2023-04-03T12:28:47.751Z,11.20
2023-04-03T12:31:18.164Z,11.28
2023-04-03T12:34:15.380Z,11.05
2023-04-03T12:37:01.324Z,10.68
2023-04-03T12:39:42.611Z,10.54
2023-04-03T12:42:21.590Z,10.62
2023-04-03T12:45:03.277Z,10.74
2023-04-03T12:47:41.100Z,10.96
2023-04-03T12:50:28.612Z,11.18
2023-04-03T12:53:01.576Z,11.20
2023-04-03T12:55:30.896Z,11.13
2023-04-03T12:58:25.056Z,11.00
2023-04-03T13:01:15.055Z,10.68
2023-04-03T13:03:48.402Z,10.29
2023-04-03T13:06:32.197Z,9.91
2023-04-03T13:09:02.242Z,9.74
2023-04-03T13:11:43.095Z,9.76
2023-04-03T13:14:26.474Z,9.73
2023-04-03T13:17:04.019Z,9.71
2023-04-03T13:19:33.046Z,9.59
2023-04-03T13:22:06.739Z,9.43
2023-04-03T13:24:39.839Z,9.35
2023-04-03T13:27:12.817Z,9.48
2023-04-03T13:29:42.138Z,9.74
2023-04-03T13:32:27.520Z,9.93
2023-04-03T13:35:00.386Z,9.95
2023-04-03T13:37:36.153Z,9.96
2023-04-03T13:43:20.915Z,10.19
2023-04-03T13:46:08.193Z,10.38
2023-04-03T13:48:44.595Z,10.35
2023-04-03T13:51:13.418Z,10.16
2023-04-03T13:53:53.743Z,9.89
2023-04-03T13:56:27.185Z,9.59
2023-04-03T13:59:22.515Z,9.30
2023-04-03T14:01:55.943Z,9.12
2023-04-03T14:04:30.769Z,9.12
2023-04-03T14:07:00.549Z,9.11
2023-04-03T14:09:29.646Z,8.98
2023-04-03T14:12:06.006Z,8.79
2023-04-03T14:14:37.518Z,8.61
2023-04-03T14:17:25.039Z,8.44
2023-04-03T14:19:56.722Z,8.24
2023-04-03T14:22:31.202Z,8.08
2023-04-03T14:25:00.618Z,8.03
2023-04-03T14:27:35.335Z,8.06
2023-04-03T14:30:07.019Z,8.20
2023-04-03T14:32:36.159Z,8.40
2023-04-03T14:35:05.758Z,8.58
2023-04-03T14:37:35.085Z,8.72
2023-04-03T14:40:05.748Z,8.78
2023-04-03T14:42:37.629Z,8.61
2023-04-03T14:45:11.650Z,8.38
2023-04-03T14:47:47.718Z,8.17
2023-04-03T14:50:22.281Z,8.02
2023-04-03T14:52:55.061Z,7.96
2023-04-03T14:55:26.045Z,7.96
2023-04-03T14:57:55.484Z,8.03
2023-04-03T15:00:24.492Z,8.13
2023-04-03T15:02:53.676Z,8.21
2023-04-03T15:05:22.880Z,8.24
2023-04-03T15:07:55.602Z,8.17
2023-04-03T15:10:26.752Z,8.04
2023-04-03T15:12:56.836Z,7.91
2023-04-03T15:15:29.411Z,7.78
2023-04-03T15:17:59.238Z,7.65
2023-04-03T15:20:31.956Z,7.50
2023-04-03T15:23:02.466Z,7.39
2023-04-03T15:25:33.447Z,7.33
2023-04-03T15:28:02.645Z,7.29
2023-04-03T15:30:31.790Z,7.24
2023-04-03T15:33:00.775Z,7.22
2023-04-03T15:35:29.778Z,7.17
2023-04-03T15:37:58.669Z,7.08
2023-04-03T15:40:27.615Z,7.00
2023-04-03T15:42:56.602Z,6.87
2023-04-03T15:45:25.901Z,6.73
2023-04-03T15:47:54.903Z,6.60
2023-04-03T15:50:25.010Z,6.49
2023-04-03T15:52:59.039Z,6.38
2023-04-03T15:55:30.616Z,6.29
2023-04-03T15:57:59.986Z,6.22
2023-04-03T16:00:30.318Z,6.19
2023-04-03T16:03:05.088Z,6.17
2023-04-03T16:05:36.417Z,6.18
2023-04-03T16:08:07.180Z,6.18
2023-04-03T16:10:37.646Z,6.15
2023-04-03T16:13:07.386Z,6.10
2023-04-03T16:15:36.701Z,6.05
2023-04-03T16:18:06.711Z,6.01
2023-04-03T16:20:35.978Z,5.98
2023-04-03T16:23:05.684Z,5.95
2023-04-03T16:25:34.609Z,5.91
2023-04-03T16:28:03.851Z,5.86
2023-04-03T16:30:32.832Z,5.82
2023-04-03T16:33:02.724Z,5.78
2023-04-03T16:35:31.664Z,5.75
2023-04-03T16:38:00.709Z,5.71
2023-04-03T16:40:30.372Z,5.69
2023-04-03T16:42:59.338Z,5.65
2023-04-03T16:45:28.559Z,5.61
2023-04-03T16:47:57.436Z,5.56
2023-04-03T16:50:26.454Z,5.52
2023-04-03T16:52:55.585Z,5.47
2023-04-03T16:55:24.475Z,5.42
2023-04-03T16:57:53.750Z,5.39
2023-04-03T17:00:22.937Z,5.35
2023-04-03T17:02:51.922Z,5.32
2023-04-03T17:05:21.203Z,5.28
2023-04-03T17:07:50.102Z,5.26
2023-04-03T17:10:19.227Z,5.23
2023-04-03T17:12:48.197Z,5.19
2023-04-03T17:15:17.185Z,5.13
2023-04-03T17:17:46.644Z,5.07
2023-04-03T17:20:15.881Z,5.00
2023-04-03T17:22:45.688Z,4.94
2023-04-03T17:25:15.861Z,4.89
2023-04-03T17:27:44.784Z,4.87
2023-04-03T17:30:13.798Z,4.87
2023-04-03T17:32:42.769Z,4.87
2023-04-03T17:35:11.838Z,4.85
2023-04-03T17:37:40.967Z,4.82
2023-04-03T17:40:10.473Z,4.80
2023-04-03T17:42:39.490Z,4.77
2023-04-03T17:45:08.854Z,4.74
2023-04-03T17:47:37.768Z,4.71
2023-04-03T17:50:07.379Z,4.68
2023-04-03T17:52:36.391Z,4.66
2023-04-03T17:55:05.804Z,4.64
2023-04-03T17:57:34.788Z,4.62
2023-04-03T18:00:04.869Z,4.61
2023-04-03T18:02:33.971Z,4.59
2023-04-03T18:05:03.131Z,4.56
2023-04-03T18:07:32.080Z,4.55
2023-04-03T18:10:01.084Z,4.53
2023-04-03T18:12:30.055Z,4.53
2023-04-03T18:15:00.458Z,4.52
2023-04-03T18:17:29.448Z,4.54
2023-04-03T18:19:58.490Z,4.53
2023-04-03T18:22:29.091Z,4.54
2023-04-03T18:24:58.653Z,4.54
2023-04-03T18:27:28.267Z,4.53
2023-04-03T18:30:01.707Z,4.53
2023-04-03T18:32:30.826Z,4.53
2023-04-03T18:35:01.093Z,4.53
2023-04-03T18:37:30.213Z,4.55
2023-04-03T18:39:59.089Z,4.53
2023-04-03T18:42:28.302Z,4.52
2023-04-03T18:45:01.871Z,4.51
2023-04-03T18:47:32.038Z,4.51
2023-04-03T18:50:01.043Z,4.49
2023-04-03T18:52:30.072Z,4.47
2023-04-03T18:54:59.006Z,4.49
2023-04-03T18:57:27.959Z,4.50
2023-04-03T18:59:56.867Z,4.49
2023-04-03T19:02:27.071Z,4.49
2023-04-03T19:04:56.857Z,4.50
2023-04-03T19:07:25.774Z,4.49
2023-04-03T19:09:55.554Z,4.49
2023-04-03T19:12:25.484Z,4.48
2023-04-03T19:14:54.377Z,4.46
2023-04-03T19:17:23.224Z,4.44
2023-04-03T19:19:52.187Z,4.42
2023-04-03T19:22:21.098Z,4.41
2023-04-03T19:24:49.971Z,4.39
2023-04-03T19:27:18.837Z,4.36
2023-04-03T19:29:50.185Z,4.34
2023-04-03T19:32:19.188Z,4.31
2023-04-03T19:34:48.351Z,4.28
2023-04-03T19:37:18.423Z,4.24
2023-04-03T19:39:47.329Z,4.20
2023-04-03T19:42:16.359Z,4.17
2023-04-03T19:44:47.155Z,4.13
2023-04-03T19:47:17.899Z,4.08
2023-04-03T19:49:46.889Z,4.05
2023-04-03T19:52:16.082Z,4.01
2023-04-03T19:54:44.973Z,3.97
2023-04-03T19:57:14.351Z,3.93
2023-04-03T19:59:43.604Z,3.89
2023-04-03T20:02:12.594Z,3.85
2023-04-03T20:04:41.588Z,3.81
2023-04-03T20:07:11.192Z,3.76
2023-04-03T20:09:40.144Z,3.71
2023-04-03T20:12:10.763Z,3.66
2023-04-03T20:14:41.152Z,3.62
2023-04-03T20:17:10.066Z,3.59
2023-04-03T20:19:38.941Z,3.58
2023-04-03T20:22:07.844Z,3.57
2023-04-03T20:24:36.808Z,3.57
2023-04-03T20:27:05.698Z,3.56
2023-04-03T20:29:37.608Z,3.56
2023-04-03T20:32:07.506Z,3.56
2023-04-03T20:34:36.381Z,3.55
2023-04-03T20:37:06.150Z,3.54
2023-04-03T20:39:36.358Z,3.53
2023-04-03T20:42:05.483Z,3.52
2023-04-03T20:44:34.520Z,3.50
2023-04-03T20:47:04.027Z,3.49
2023-04-03T20:49:33.046Z,3.47
2023-04-03T20:52:02.459Z,3.43
2023-04-03T20:54:32.681Z,3.40
2023-04-03T20:57:02.606Z,3.36
2023-04-03T20:59:32.935Z,3.31
2023-04-03T21:02:01.869Z,3.26
2023-04-03T21:04:39.523Z,3.20
2023-04-03T21:07:46.796Z,3.14
2023-04-03T21:10:53.391Z,3.05
2023-04-03T21:14:01.235Z,2.96
2023-04-03T21:16:30.906Z,2.88
2023-04-03T21:19:12.428Z,2.81
2023-04-03T21:21:45.767Z,2.71
2023-04-03T21:24:18.466Z,2.63
2023-04-03T21:26:47.763Z,2.54
2023-04-03T21:29:16.782Z,2.46
2023-04-03T21:31:57.983Z,2.39
2023-04-03T21:34:29.192Z,2.32
2023-04-03T21:37:06.189Z,2.26
2023-04-03T21:39:35.119Z,2.21
2023-04-03T21:42:04.151Z,2.17
2023-04-03T21:44:33.044Z,2.13
2023-04-03T21:47:01.957Z,2.11
2023-04-03T21:49:30.841Z,2.10
2023-04-03T21:51:59.778Z,2.08
2023-04-03T21:54:29.257Z,2.08
2023-04-03T21:56:58.174Z,2.09
2023-04-03T21:59:27.238Z,2.12
2023-04-03T22:01:56.549Z,2.15
2023-04-03T22:04:26.833Z,2.18
2023-04-03T22:06:59.646Z,2.21
2023-04-03T22:09:28.613Z,2.24
2023-04-03T22:11:57.499Z,2.26
2023-04-03T22:14:26.462Z,2.28
2023-04-03T22:16:55.580Z,2.30
2023-04-03T22:19:24.428Z,2.31
2023-04-03T22:21:53.734Z,2.32
2023-04-03T22:24:22.733Z,2.32
2023-04-03T22:26:51.620Z,2.31
2023-04-03T22:29:21.142Z,2.31
2023-04-03T22:31:50.088Z,2.30
2023-04-03T22:34:19.898Z,2.27
2023-04-03T22:36:48.799Z,2.25
2023-04-03T22:39:19.438Z,2.21
2023-04-03T22:41:48.440Z,2.18
2023-04-03T22:44:18.042Z,2.14
2023-04-03T22:46:47.604Z,2.09
2023-04-03T22:49:17.255Z,2.04
2023-04-03T22:51:46.769Z,1.98
2023-04-03T22:54:15.851Z,1.92
2023-04-03T22:56:44.757Z,1.87
2023-04-03T22:59:13.648Z,1.82
2023-04-03T23:01:42.636Z,1.75
2023-04-03T23:04:12.391Z,1.68
2023-04-03T23:06:41.780Z,1.61
2023-04-03T23:09:10.758Z,1.53
2023-04-03T23:11:39.796Z,1.45
2023-04-03T23:14:08.716Z,1.37
2023-04-03T23:16:37.752Z,1.29
2023-04-03T23:19:07.352Z,1.22
2023-04-03T23:21:36.492Z,1.15
2023-04-03T23:24:05.615Z,1.07
2023-04-03T23:26:34.503Z,0.99
2023-04-03T23:29:03.701Z,0.91
2023-04-03T23:31:32.607Z,0.84
2023-04-03T23:34:01.561Z,0.75
2023-04-03T23:36:30.860Z,0.68
2023-04-03T23:38:59.749Z,0.61
2023-04-03T23:41:28.664Z,0.54
2023-04-03T23:43:57.546Z,0.47
2023-04-03T23:46:26.989Z,0.40
2023-04-03T23:48:55.979Z,0.35
2023-04-03T23:51:24.963Z,0.29
2023-04-03T23:53:53.887Z,0.22
2023-04-03T23:56:23.141Z,0.15
2023-04-03T23:58:52.388Z,0.10
